Archival Weather

Dewar Lakes

Dewar Lakes, Canada (CWUW)

Report from: Friday, May 26, 2023 5:00 AM EDT
Current time: Monday, July 22, 2024 7:05 AM EDT

Current weather – Weather history – Daily summaries
Weather forecast

Present weatherSM
Temperature-16.0°C (3.2°F)
Wind chill-28.6°C (-19.5°F)
Dew point-17.0°C (1.4°F)
Winds 21 kts (10.8 m/s, 24.2 mph) North-Northwest (330°)
Wind gusts 27 kts (13.9 m/s, 31.1 mph)
Visibility0 ft. (0 m)
Altimeter29.54 in.Hg (1000 mB)
Relative humidity92 %
Density altitude-3,452 ft. (-1,052 m)
Remarks Fully automated report
Flight conditions Low Instrument Meteorological Conditions
Raw dataCWUW 260900Z AUTO 33021G27KT ////SM ////// M16/M17 A2954
An error has occurred. This application may no longer respond until reloaded. Reload 🗙